MYW32U FSIA-VCBI
Flight info
| Callsign | MYW32U |
|---|---|
| Flight time | N/A |
| Altitude | 39000 |
| Route | DULMA1B DULMA T146 TIBUL DCT ORLOM/N0475F400 UM307 OTKIR/N0474F390 G465 GOSGU/N0476F410 G465 DOPDO M512 TELIG LALUM1A |
| Aircraft | B772/H-SDE2E3FGHIJ5LORVWXY/LB1D1 |
Departure
| Time | 2026-04-20 18:18 |
|---|---|
| Airport | Seychelles International Airport (FSIA) |
Arrival
| Time | N/A |
|---|---|
| Airport | Bandaranaike International Colombo Airport (VCBI) |
| Time | Latitude | Longitude | Altitude | Speed | Heading |
|---|---|---|---|---|---|
| 2026-04-20 17:51 | -4.67011 | 55.51142 | 25 ft | 0 kts | 215° |
| 2026-04-20 18:08 | -4.67010 | 55.51143 | 25 ft | 2 kts | 216° |
| 2026-04-20 18:08 | -4.66992 | 55.51160 | 30 ft | 4 kts | 240° |
| 2026-04-20 18:08 | -4.66984 | 55.51185 | 30 ft | 4 kts | 274° |
| 2026-04-20 18:09 | -4.66990 | 55.51210 | 30 ft | 4 kts | 298° |
| 2026-04-20 18:09 | -4.66997 | 55.51222 | 30 ft | 0 kts | 305° |
| 2026-04-20 18:13 | -4.66996 | 55.51221 | 30 ft | 2 kts | 305° |
| 2026-04-20 18:13 | -4.66961 | 55.51203 | 30 ft | 7 kts | 360° |
| 2026-04-20 18:13 | -4.66913 | 55.51200 | 28 ft | 7 kts | 346° |
| 2026-04-20 18:13 | -4.66878 | 55.51169 | 29 ft | 7 kts | 308° |
| 2026-04-20 18:14 | -4.66851 | 55.51129 | 30 ft | 7 kts | 304° |
| 2026-04-20 18:14 | -4.66840 | 55.51112 | 28 ft | 0 kts | 304° |
| 2026-04-20 18:14 | -4.66811 | 55.51070 | 29 ft | 17 kts | 304° |
| 2026-04-20 18:15 | -4.66756 | 55.51031 | 27 ft | 0 kts | 358° |
| 2026-04-20 18:16 | -4.66719 | 55.51041 | 29 ft | 15 kts | 24° |
| 2026-04-20 18:16 | -4.66697 | 55.51111 | 27 ft | 0 kts | 124° |
| 2026-04-20 18:18 | -4.66771 | 55.51218 | 27 ft | 52 kts | 125° |
| 2026-04-20 18:18 | -4.67134 | 55.51733 | 28 ft | 127 kts | 123° |
| 2026-04-20 18:18 | -4.67756 | 55.52631 | 135 ft | 176 kts | 126° |
| 2026-04-20 18:18 | -4.68413 | 55.53614 | 1051 ft | 162 kts | 124° |
| 2026-04-20 18:19 | -4.69063 | 55.54586 | 1789 ft | 174 kts | 125° |
| 2026-04-20 18:19 | -4.69817 | 55.55651 | 2133 ft | 202 kts | 126° |
| 2026-04-20 18:19 | -4.70675 | 55.56859 | 2371 ft | 229 kts | 126° |
| 2026-04-20 18:19 | -4.71623 | 55.58197 | 2843 ft | 243 kts | 125° |
| 2026-04-20 18:20 | -4.72649 | 55.59648 | 3232 ft | 262 kts | 125° |
| 2026-04-20 18:20 | -4.73508 | 55.61274 | 3735 ft | 268 kts | 101° |
| 2026-04-20 18:20 | -4.73345 | 55.63087 | 4464 ft | 269 kts | 66° |
| 2026-04-20 18:20 | -4.72340 | 55.64668 | 5136 ft | 272 kts | 51° |
| 2026-04-20 18:21 | -4.71077 | 55.66119 | 5800 ft | 278 kts | 47° |
| 2026-04-20 18:21 | -4.69746 | 55.67539 | 6498 ft | 280 kts | 47° |
| 2026-04-20 18:21 | -4.68395 | 55.68956 | 7171 ft | 282 kts | 46° |
| 2026-04-20 18:21 | -4.67028 | 55.70388 | 7832 ft | 285 kts | 47° |
| 2026-04-20 18:22 | -4.65649 | 55.71835 | 8487 ft | 287 kts | 47° |
| 2026-04-20 18:22 | -4.64286 | 55.73271 | 9106 ft | 290 kts | 47° |
| 2026-04-20 18:22 | -4.62884 | 55.74753 | 9718 ft | 291 kts | 47° |
| 2026-04-20 18:22 | -4.61486 | 55.76234 | 10020 ft | 294 kts | 47° |
| 2026-04-20 18:23 | -4.60070 | 55.77737 | 9993 ft | 296 kts | 47° |
| 2026-04-20 18:23 | -4.58657 | 55.79238 | 10005 ft | 295 kts | 47° |
| 2026-04-20 18:23 | -4.57244 | 55.80741 | 10005 ft | 295 kts | 47° |
| 2026-04-20 18:23 | -4.55847 | 55.82227 | 10005 ft | 295 kts | 47° |
| 2026-04-20 18:24 | -4.54435 | 55.83730 | 10008 ft | 295 kts | 47° |
| 2026-04-20 18:24 | -4.53040 | 55.85215 | 10006 ft | 296 kts | 47° |
| 2026-04-20 18:24 | -4.51624 | 55.86721 | 10007 ft | 296 kts | 47° |
| 2026-04-20 18:24 | -4.50214 | 55.88222 | 10006 ft | 296 kts | 47° |
| 2026-04-20 18:25 | -4.48795 | 55.89732 | 10020 ft | 296 kts | 47° |
| 2026-04-20 18:25 | -4.47382 | 55.91236 | 10019 ft | 296 kts | 47° |
| 2026-04-20 18:25 | -4.46045 | 55.92658 | 10019 ft | 296 kts | 47° |
| 2026-04-20 18:25 | -4.44632 | 55.94161 | 10023 ft | 296 kts | 47° |
| 2026-04-20 18:26 | -4.43218 | 55.95665 | 10019 ft | 296 kts | 47° |
| 2026-04-20 18:26 | -4.41791 | 55.97184 | 10072 ft | 307 kts | 46° |
| 2026-04-20 18:26 | -4.40276 | 55.98797 | 10214 ft | 326 kts | 46° |
| 2026-04-20 18:26 | -4.38700 | 56.00474 | 10462 ft | 342 kts | 46° |
| 2026-04-20 18:27 | -4.37043 | 56.02239 | 10985 ft | 350 kts | 46° |
| 2026-04-20 18:27 | -4.35298 | 56.03962 | 11591 ft | 354 kts | 38° |
| 2026-04-20 18:27 | -4.33164 | 56.05208 | 12339 ft | 358 kts | 23° |
| 2026-04-20 18:27 | -4.30815 | 56.06082 | 13240 ft | 359 kts | 18° |
| 2026-04-20 18:28 | -4.28441 | 56.06849 | 14008 ft | 364 kts | 17° |
| 2026-04-20 18:28 | -4.25989 | 56.07609 | 14692 ft | 369 kts | 17° |
| 2026-04-20 18:28 | -4.23540 | 56.08355 | 15335 ft | 376 kts | 17° |
| 2026-04-20 18:28 | -4.21015 | 56.09121 | 16005 ft | 379 kts | 19° |
| 2026-04-20 18:29 | -4.18639 | 56.10305 | 16425 ft | 385 kts | 36° |
| 2026-04-20 18:29 | -4.16534 | 56.12008 | 17041 ft | 390 kts | 41° |
| 2026-04-20 18:29 | -4.14500 | 56.13761 | 17773 ft | 393 kts | 40° |
| 2026-04-20 18:29 | -4.12352 | 56.15485 | 18434 ft | 397 kts | 38° |
| 2026-04-20 18:30 | -4.10104 | 56.17120 | 19004 ft | 401 kts | 35° |
| 2026-04-20 18:30 | -4.07758 | 56.18685 | 19590 ft | 404 kts | 33° |
| 2026-04-20 18:30 | -4.05446 | 56.20135 | 20142 ft | 408 kts | 32° |
| 2026-04-20 18:30 | -4.02936 | 56.21647 | 20721 ft | 412 kts | 31° |
| 2026-04-20 18:31 | -4.00455 | 56.23108 | 21255 ft | 415 kts | 30° |
| 2026-04-20 18:31 | -3.97935 | 56.24575 | 21795 ft | 419 kts | 30° |
| 2026-04-20 18:31 | -3.95396 | 56.26046 | 22317 ft | 422 kts | 30° |
| 2026-04-20 18:31 | -3.92874 | 56.27506 | 22864 ft | 426 kts | 30° |
| 2026-04-20 18:32 | -3.90285 | 56.29006 | 23478 ft | 429 kts | 30° |